Time;durP1;ratioP1;P1;durP2;ratioP2;P2;SDS_P1;SDS_P2;PMS_P1;PMS_P2;Temp;Humidity;BMP_temperature;BMP_pressure;BME280_temperature;BME280_humidity;BME280_pressure;Samples;Min_cycle;Max_cycle;Signal;HPM_P1;HPM_P2
2021/09/15 00:02:06;;;;;;;;;6.75;6.75;;;;;23.56;67.29;100706.38;5037626;28;45357;-83
2021/09/15 00:04:32;;;;;;;;;5.50;5.50;;;;;23.55;66.86;100711.69;5037918;28;45514;-84
2021/09/15 00:06:58;;;;;;;;;7.75;7.25;;;;;23.53;67.39;100701.16;5038200;28;45421;-83
2021/09/15 00:09:23;;;;;;;;;8.00;7.75;;;;;23.48;67.22;100695.03;5037821;28;45505;-83
2021/09/15 00:11:49;;;;;;;;;7.50;6.75;;;;;23.47;67.54;100690.63;5038447;28;45243;-83
2021/09/15 00:14:15;;;;;;;;;9.75;8.25;;;;;23.46;67.55;100696.81;5042175;28;45381;-83
2021/09/15 00:16:41;;;;;;;;;6.75;6.50;;;;;23.40;67.32;100692.47;5045468;28;45276;-83
2021/09/15 00:19:06;;;;;;;;;9.25;7.00;;;;;23.38;67.70;100694.22;5041178;28;45334;-83
2021/09/15 00:21:32;;;;;;;;;10.00;8.00;;;;;23.32;67.56;100689.03;5038004;28;45274;-83
2021/09/15 00:23:58;;;;;;;;;7.50;7.50;;;;;23.28;67.78;100687.28;5037529;28;45942;-83
2021/09/15 00:26:23;;;;;;;;;7.00;6.00;;;;;23.24;68.11;100689.09;5038254;28;45296;-83
2021/09/15 00:28:49;;;;;;;;;7.00;6.00;;;;;23.22;68.10;100690.00;5038092;28;45569;-83
2021/09/15 00:31:14;;;;;;;;;5.75;5.25;;;;;23.18;67.81;100679.44;5037484;28;45371;-83
2021/09/15 00:33:40;;;;;;;;;7.75;6.50;;;;;23.18;68.08;100683.84;5053180;28;45326;-83
2021/09/15 00:36:06;;;;;;;;;10.50;6.75;;;;;23.17;68.04;100682.97;5037507;28;45328;-84
2021/09/15 00:38:32;;;;;;;;;7.25;6.25;;;;;23.21;68.35;100682.97;5038557;28;45998;-83
2021/09/15 00:40:57;;;;;;;;;7.00;6.25;;;;;23.21;67.90;100673.31;5041223;28;45376;-83
2021/09/15 00:43:23;;;;;;;;;7.00;4.50;;;;;23.16;68.24;100675.94;5041585;28;45306;-83
2021/09/15 00:45:49;;;;;;;;;5.00;4.75;;;;;23.10;68.18;100673.34;5038658;28;45632;-83
2021/09/15 00:48:14;;;;;;;;;6.00;5.00;;;;;23.13;68.11;100672.44;5035282;28;46620;-83
2021/09/15 00:50:40;;;;;;;;;6.25;4.50;;;;;23.13;68.12;100677.72;5036832;28;45454;-84
2021/09/15 00:53:07;;;;;;;;;5.25;5.25;;;;;23.14;67.96;100677.72;5035945;28;45252;-84
2021/09/15 00:55:33;;;;;;;;;6.75;5.75;;;;;23.14;68.57;100676.84;5037972;28;45707;-83
2021/09/15 00:57:59;;;;;;;;;6.25;6.25;;;;;23.14;68.66;100682.13;5037016;28;46250;-83
2021/09/15 01:00:24;;;;;;;;;7.25;7.25;;;;;23.12;68.69;100681.25;5052641;28;45479;-83
2021/09/15 01:02:50;;;;;;;;;5.00;3.75;;;;;23.15;68.61;100679.50;5052673;28;45345;-83
2021/09/15 01:05:16;;;;;;;;;6.00;5.25;;;;;23.14;68.81;100685.66;5037249;28;45355;-84
2021/09/15 01:07:42;;;;;;;;;6.50;6.50;;;;;23.15;68.63;100676.84;5040057;28;46007;-84
2021/09/15 01:10:08;;;;;;;;;5.00;5.00;;;;;23.16;68.99;100683.00;5042740;28;45334;-83
2021/09/15 01:12:35;;;;;;;;;8.00;5.00;;;;;23.13;68.78;100675.97;5039719;28;45286;-83
2021/09/15 01:15:01;;;;;;;;;5.00;4.75;;;;;23.13;68.45;100670.69;5052600;28;45514;-83
2021/09/15 01:17:26;;;;;;;;;7.00;5.00;;;;;23.11;68.53;100668.97;5037524;28;45331;-84
2021/09/15 01:19:52;;;;;;;;;5.00;5.00;;;;;23.13;68.70;100673.34;5053410;28;45463;-83
2021/09/15 01:22:18;;;;;;;;;5.75;4.00;;;;;23.13;68.57;100677.72;5037308;28;45435;-84
2021/09/15 01:24:47;;;;;;;;;7.50;5.25;;;;;23.14;68.54;100679.47;5052094;28;45569;-83
2021/09/15 01:27:12;;;;;;;;;5.25;3.25;;;;;23.12;68.47;100675.97;5036762;28;46370;-83
2021/09/15 01:29:38;;;;;;;;;7.00;7.00;;;;;23.09;68.37;100668.97;5037003;28;45471;-84
2021/09/15 01:32:09;;;;;;;;;3.50;3.00;;;;;23.03;68.46;100664.63;5036979;28;45451;-84
2021/09/15 01:34:41;;;;;;;;;5.25;4.00;;;;;23.06;68.27;100658.41;5037370;28;45366;-84
2021/09/15 01:37:09;;;;;;;;;7.25;5.75;;;;;23.03;68.75;100650.56;5038011;28;45284;-83
2021/09/15 01:39:40;;;;;;;;;6.00;5.50;;;;;23.02;68.53;100665.50;5040479;28;45323;-84
2021/09/15 01:42:08;;;;;;;;;4.25;4.25;;;;;23.03;68.65;100667.25;5053040;28;45291;-83
2021/09/15 01:44:44;;;;;;;;;5.25;4.25;;;;;23.04;68.65;100666.38;5036937;28;45576;-83
2021/09/15 01:47:12;;;;;;;;;7.50;5.50;;;;;23.06;68.54;100666.34;5036524;28;46394;-84
2021/09/15 01:49:39;;;;;;;;;7.75;6.75;;;;;23.06;68.42;100657.56;5036625;28;45750;-83
2021/09/15 01:52:06;;;;;;;;;7.50;5.50;;;;;23.07;68.59;100665.44;5035032;28;45289;-85
2021/09/15 01:54:32;;;;;;;;;4.75;4.75;;;;;23.04;68.58;100654.94;5036757;28;45170;-83
2021/09/15 01:56:57;;;;;;;;;5.50;5.50;;;;;23.00;68.49;100653.22;5035813;28;45987;-83
2021/09/15 01:59:23;;;;;;;;;4.75;4.00;;;;;22.97;68.73;100661.16;5036602;28;45700;-85
2021/09/15 02:01:49;;;;;;;;;8.00;6.00;;;;;22.97;69.07;100662.03;5053045;28;45386;-83
2021/09/15 02:04:16;;;;;;;;;7.25;5.00;;;;;22.98;68.81;100668.19;5038321;28;45318;-84
2021/09/15 02:06:42;;;;;;;;;7.00;7.00;;;;;22.98;68.66;100665.53;5039205;28;46729;-84
2021/09/15 02:09:08;;;;;;;;;9.00;7.25;;;;;22.93;68.62;100670.88;5036393;28;45443;-84
2021/09/15 02:11:35;;;;;;;;;6.75;5.50;;;;;22.91;68.66;100679.69;5036569;28;45354;-84
2021/09/15 02:14:01;;;;;;;;;4.25;4.25;;;;;22.88;68.79;100689.38;5035364;28;45240;-84
2021/09/15 02:16:27;;;;;;;;;8.75;8.00;;;;;22.87;68.94;100687.63;5036235;28;45645;-84
2021/09/15 02:18:53;;;;;;;;;6.50;5.00;;;;;22.85;68.78;100685.91;5036461;28;45213;-84
2021/09/15 02:21:20;;;;;;;;;6.50;6.50;;;;;22.85;69.07;100688.53;5036358;28;45304;-83
2021/09/15 02:23:46;;;;;;;;;7.00;6.00;;;;;22.85;69.14;100684.13;5036085;28;45390;-83
2021/09/15 02:26:12;;;;;;;;;6.75;5.00;;;;;22.85;68.84;100681.47;5035613;28;45481;-83
2021/09/15 02:28:39;;;;;;;;;5.50;4.50;;;;;22.84;68.86;100681.50;5035436;28;45793;-84
2021/09/15 02:31:04;;;;;;;;;6.75;5.50;;;;;22.85;68.74;100680.63;5037669;28;45364;-83
2021/09/15 02:33:30;;;;;;;;;4.75;4.00;;;;;22.86;69.08;100677.97;5038170;28;45185;-83
2021/09/15 02:35:56;;;;;;;;;5.00;4.00;;;;;22.87;68.87;100671.78;5036000;28;46113;-84
2021/09/15 02:38:21;;;;;;;;;5.25;5.25;;;;;22.90;68.77;100672.66;5036063;28;45291;-84
2021/09/15 02:40:47;;;;;;;;;7.00;5.25;;;;;22.90;68.92;100670.03;5035756;28;45254;-83
2021/09/15 02:43:13;;;;;;;;;7.00;6.25;;;;;22.91;68.90;100674.41;5035786;28;46082;-84
2021/09/15 02:45:38;;;;;;;;;8.00;6.25;;;;;22.94;68.84;100684.97;5035362;28;46073;-83
2021/09/15 02:48:05;;;;;;;;;6.25;5.25;;;;;22.93;68.79;100675.28;5035346;28;45645;-84
2021/09/15 02:50:30;;;;;;;;;7.00;7.00;;;;;22.91;68.65;100682.34;5035175;28;45453;-83
2021/09/15 02:52:57;;;;;;;;;9.25;6.50;;;;;22.90;68.78;100681.44;5035618;28;45514;-83
2021/09/15 02:55:23;;;;;;;;;8.50;7.00;;;;;22.91;69.11;100683.19;5035568;28;46458;-83
2021/09/15 02:57:49;;;;;;;;;8.50;7.50;;;;;22.91;69.16;100692.91;5036191;28;45406;-83
2021/09/15 03:00:15;;;;;;;;;5.00;5.00;;;;;22.92;69.52;100682.31;5035481;28;45377;-83
2021/09/15 03:02:41;;;;;;;;;6.75;5.50;;;;;22.91;69.25;100679.69;5036518;28;45465;-83
2021/09/15 03:05:07;;;;;;;;;6.00;5.75;;;;;22.93;69.05;100678.78;5035624;28;45485;-84
2021/09/15 03:07:32;;;;;;;;;9.50;7.50;;;;;22.93;69.24;100676.16;5035567;28;45766;-84
2021/09/15 03:09:58;;;;;;;;;8.00;7.75;;;;;22.94;69.23;100677.03;5035033;28;45358;-83
2021/09/15 03:12:24;;;;;;;;;7.75;6.75;;;;;22.94;69.36;100677.03;5050580;28;45248;-83
2021/09/15 03:14:49;;;;;;;;;8.25;6.00;;;;;22.90;69.54;100668.25;5034531;28;46489;-84
2021/09/15 03:17:15;;;;;;;;;7.00;7.00;;;;;22.94;69.18;100671.75;5037990;28;45430;-83
2021/09/15 03:19:40;;;;;;;;;7.50;6.00;;;;;22.93;69.52;100670.00;5038686;28;45508;-83
2021/09/15 03:22:06;;;;;;;;;6.50;6.50;;;;;22.93;69.59;100668.22;5038772;28;45425;-83
2021/09/15 03:24:31;;;;;;;;;8.00;7.00;;;;;22.91;69.54;100667.34;5053703;28;46623;-84
2021/09/15 03:26:58;;;;;;;;;7.00;6.00;;;;;22.93;69.17;100668.22;5038500;28;45445;-83
2021/09/15 03:29:24;;;;;;;;;7.00;7.00;;;;;22.90;69.07;100673.53;5038668;28;45448;-83
2021/09/15 03:31:49;;;;;;;;;7.00;6.25;;;;;22.94;69.29;100674.41;5039075;28;45502;-84
2021/09/15 03:34:15;;;;;;;;;6.25;6.25;;;;;22.95;69.12;100670.84;5038005;28;45949;-83
2021/09/15 03:36:41;;;;;;;;;5.50;4.75;;;;;22.95;69.04;100669.09;5053624;28;45302;-83
2021/09/15 03:39:06;;;;;;;;;6.50;5.00;;;;;22.94;69.25;100677.91;5036328;28;45427;-83
2021/09/15 03:41:32;;;;;;;;;7.00;7.00;;;;;22.94;69.70;100683.19;5037898;28;45188;-84
2021/09/15 03:43:58;;;;;;;;;10.50;6.25;;;;;22.91;69.56;100682.34;5037825;28;45408;-85
2021/09/15 03:46:24;;;;;;;;;10.00;6.00;;;;;22.90;69.42;100683.22;5038091;28;45327;-84
2021/09/15 03:48:49;;;;;;;;;8.50;6.25;;;;;22.91;69.30;100691.13;5054134;28;45422;-83
2021/09/15 03:51:15;;;;;;;;;6.50;6.50;;;;;22.90;68.82;100686.72;5038330;28;45331;-84
2021/09/15 03:53:41;;;;;;;;;6.75;6.75;;;;;22.86;69.37;100687.66;5038177;28;45309;-84
2021/09/15 03:56:07;;;;;;;;;5.75;5.50;;;;;22.81;69.75;100690.34;5037690;28;45362;-84
2021/09/15 03:58:32;;;;;;;;;9.25;7.50;;;;;22.78;69.86;100700.03;5037876;28;45327;-83
2021/09/15 04:00:58;;;;;;;;;6.75;6.75;;;;;22.78;70.30;100692.13;5037806;28;46118;-84
2021/09/15 04:03:23;;;;;;;;;7.75;6.50;;;;;22.75;70.56;100689.50;5052506;28;48003;-84
2021/09/15 04:05:49;;;;;;;;;6.00;6.00;;;;;22.75;70.51;100694.78;5053460;28;45462;-84
2021/09/15 04:08:15;;;;;;;;;9.00;8.50;;;;;22.73;70.39;100694.81;5037290;28;45467;-83
2021/09/15 04:10:40;;;;;;;;;6.75;6.00;;;;;22.72;70.57;100700.97;5038256;28;45287;-83
2021/09/15 04:13:06;;;;;;;;;7.00;5.25;;;;;22.72;70.84;100699.19;5037864;28;45457;-83
2021/09/15 04:15:31;;;;;;;;;7.25;6.00;;;;;22.70;70.29;100695.69;5053326;28;45223;-84
2021/09/15 04:17:57;;;;;;;;;8.00;6.00;;;;;22.69;70.83;100699.22;5038131;28;45337;-84
2021/09/15 04:20:23;;;;;;;;;7.75;7.75;;;;;22.71;71.07;100699.22;5039100;28;45712;-83
2021/09/15 04:22:49;;;;;;;;;5.50;5.50;;;;;22.70;71.12;100700.97;5038043;28;46301;-84
2021/09/15 04:33:28;;;;;;;;;7.00;7.00;;;;;22.48;72.04;100687.06;5037187;28;45384;-84
2021/09/15 04:35:53;;;;;;;;;7.00;5.75;;;;;22.42;72.48;100690.59;5039082;28;45271;-85
2021/09/15 04:38:19;;;;;;;;;7.50;6.75;;;;;22.40;72.68;100687.09;5038212;28;45410;-85
2021/09/15 04:40:45;;;;;;;;;6.50;5.50;;;;;22.40;72.57;100692.38;5037816;28;45396;-85
2021/09/15 04:43:11;;;;;;;;;7.25;6.75;;;;;22.40;72.66;100688.84;5035957;28;47118;-85
2021/09/15 04:45:37;;;;;;;;;6.25;6.00;;;;;22.42;72.76;100689.72;5040006;28;45422;-85
2021/09/15 04:48:04;;;;;;;;;7.00;7.00;;;;;22.46;72.52;100690.59;5041839;28;45354;-85
2021/09/15 04:50:29;;;;;;;;;7.00;6.25;;;;;22.46;71.88;100686.19;5039582;28;45283;-85
2021/09/15 04:52:55;;;;;;;;;6.25;5.25;;;;;22.45;72.46;100692.34;5037087;28;46154;-85
2021/09/15 04:55:22;;;;;;;;;7.50;7.25;;;;;22.49;72.33;100690.56;5036305;28;45260;-85
2021/09/15 04:57:48;;;;;;;;;7.25;7.00;;;;;22.48;72.36;100696.72;5052471;28;45376;-85
2021/09/15 05:00:14;;;;;;;;;9.75;5.50;;;;;22.49;72.26;100698.47;5037323;28;45548;-85
2021/09/15 05:02:40;;;;;;;;;5.75;5.25;;;;;22.49;72.05;100707.28;5036231;28;46066;-85
2021/09/15 05:05:06;;;;;;;;;7.00;6.75;;;;;22.48;72.12;100704.63;5036758;28;45434;-85
2021/09/15 05:07:32;;;;;;;;;8.75;6.00;;;;;22.51;72.28;100705.50;5052576;28;45312;-85
2021/09/15 05:09:58;;;;;;;;;8.00;5.00;;;;;22.48;71.82;100694.97;5037132;28;45519;-85
2021/09/15 05:12:23;;;;;;;;;8.00;7.00;;;;;22.49;71.72;100707.28;5036640;28;45330;-84
2021/09/15 05:14:49;;;;;;;;;7.00;7.00;;;;;22.51;71.86;100704.63;5036580;28;45446;-85
2021/09/15 05:17:14;;;;;;;;;9.75;7.75;;;;;22.49;71.83;100703.75;5052766;28;45318;-85
2021/09/15 05:19:40;;;;;;;;;5.50;5.25;;;;;22.51;71.88;100709.91;5036808;28;45324;-85
2021/09/15 05:22:05;;;;;;;;;6.00;5.25;;;;;22.50;71.94;100705.50;5036902;28;46403;-85
2021/09/15 05:24:31;;;;;;;;;11.75;8.00;;;;;22.52;71.53;100709.88;5020431;28;45404;-84
2021/09/15 05:26:57;;;;;;;;;8.00;6.25;;;;;22.47;71.45;100701.13;5015536;28;45357;-84
2021/09/15 05:29:22;;;;;;;;;7.25;6.00;;;;;22.53;71.58;100705.50;5028130;28;45596;-84
2021/09/15 05:31:48;;;;;;;;;5.00;5.00;;;;;22.53;71.58;100708.13;5037174;28;45266;-84
2021/09/15 05:34:14;;;;;;;;;6.25;5.00;;;;;22.53;71.09;100703.72;5038207;28;45296;-84
2021/09/15 05:36:39;;;;;;;;;5.50;5.50;;;;;22.55;71.00;100715.13;5036908;28;45328;-83
2021/09/15 05:39:08;;;;;;;;;8.75;7.00;;;;;22.57;71.45;100723.03;5035847;28;45486;-83
2021/09/15 05:41:34;;;;;;;;;6.50;6.50;;;;;22.59;72.37;100720.41;5035797;28;45519;-85
2021/09/15 05:43:59;;;;;;;;;8.25;8.25;;;;;22.59;71.71;100721.25;5043984;28;45514;-84
2021/09/15 05:46:26;;;;;;;;;7.50;7.00;;;;;22.58;71.44;100714.22;5043608;28;45177;-84
2021/09/15 05:49:03;;;;;;;;;7.25;7.00;;;;;22.60;72.02;100722.16;5038975;28;45247;-85
2021/09/15 05:51:29;;;;;;;;;6.50;6.50;;;;;22.56;71.57;100723.94;5047239;28;47932;-84
2021/09/15 05:53:54;;;;;;;;;7.25;7.25;;;;;22.54;71.33;100723.94;5038077;28;45658;-83
2021/09/15 05:56:20;;;;;;;;;10.75;8.00;;;;;22.53;71.76;100721.31;5039079;28;45389;-82
2021/09/15 05:58:46;;;;;;;;;6.00;5.00;;;;;22.53;71.30;100722.19;5039252;28;45337;-87
2021/09/15 06:01:11;;;;;;;;;5.50;4.75;;;;;22.54;71.67;100728.34;5036067;28;46706;-86
2021/09/15 06:03:37;;;;;;;;;8.50;8.50;;;;;22.54;71.76;100734.50;5041257;28;45460;-84
2021/09/15 06:06:02;;;;;;;;;9.25;9.25;;;;;22.54;71.77;100737.13;5037391;28;45348;-83
2021/09/15 06:08:28;;;;;;;;;6.75;6.75;;;;;22.55;71.74;100740.66;5041667;28;45405;-88
2021/09/15 06:10:54;;;;;;;;;11.50;8.50;;;;;22.51;71.86;100734.53;5043737;28;45779;-93
2021/09/15 06:13:19;;;;;;;;;6.25;6.25;;;;;22.51;71.91;100734.53;5023286;28;45264;-82
2021/09/15 06:15:45;;;;;;;;;7.50;7.50;;;;;22.48;71.64;100731.00;5037694;28;45333;-82
2021/09/15 06:18:10;;;;;;;;;6.75;5.00;;;;;22.50;71.73;100742.44;5037746;28;45219;-85
2021/09/15 06:20:36;;;;;;;;;10.00;7.50;;;;;22.51;71.84;100745.09;5034310;28;45474;-87
2021/09/15 06:23:05;;;;;;;;;8.75;6.50;;;;;22.48;71.57;100738.94;5040500;28;45353;-82
2021/09/15 06:25:31;;;;;;;;;8.50;7.50;;;;;22.49;72.12;100740.69;5039730;28;45436;-86
2021/09/15 06:27:57;;;;;;;;;9.00;8.25;;;;;22.49;72.39;100743.31;5029423;28;45676;-87
2021/09/15 06:30:55;;;;;;;;;8.75;6.75;;;;;22.54;71.83;100754.75;5034387;28;45539;-90
2021/09/15 06:33:23;;;;;;;;;8.25;6.25;;;;;22.52;71.37;100746.81;5029617;28;45553;-86
2021/09/15 06:36:06;;;;;;;;;7.75;5.75;;;;;22.56;71.81;100752.97;5005266;28;45452;-86
2021/09/15 06:38:40;;;;;;;;;6.75;6.75;;;;;22.52;71.42;100746.81;5003335;28;45243;-86
2021/09/15 06:41:05;;;;;;;;;5.25;5.25;;;;;22.54;71.43;100757.38;5005454;28;45317;-87
2021/09/15 06:43:31;;;;;;;;;8.75;7.75;;;;;22.50;71.40;100747.72;4998428;28;45389;-86
2021/09/15 06:45:57;;;;;;;;;6.25;6.00;;;;;22.51;71.72;100760.03;5000985;28;45399;-86
2021/09/15 06:48:22;;;;;;;;;9.75;8.25;;;;;22.51;71.72;100762.66;5016514;28;45491;-86
2021/09/15 06:50:48;;;;;;;;;10.00;8.50;;;;;22.50;71.66;100756.53;5017829;28;45961;-86
2021/09/15 06:53:14;;;;;;;;;7.00;7.00;;;;;22.49;71.94;100762.69;5015428;28;45538;-88
2021/09/15 06:55:39;;;;;;;;;9.25;8.25;;;;;22.51;71.71;100766.19;5015241;28;45475;-86
2021/09/15 06:58:05;;;;;;;;;9.25;8.50;;;;;22.49;71.80;100762.69;4997386;28;45647;-87
2021/09/15 07:00:31;;;;;;;;;10.00;9.75;;;;;22.52;72.06;100764.41;5023303;28;46226;-86
2021/09/15 07:02:57;;;;;;;;;10.25;8.00;;;;;22.51;71.84;100766.19;4994543;28;45848;-85
2021/09/15 07:05:24;;;;;;;;;8.50;7.00;;;;;22.53;71.82;100761.75;5002975;28;45786;-93
2021/09/15 07:07:49;;;;;;;;;7.00;7.00;;;;;22.51;71.64;100766.19;5034020;28;46402;-85
2021/09/15 07:10:17;;;;;;;;;8.00;7.50;;;;;22.51;71.23;100765.31;5041593;28;47432;-87
2021/09/15 07:12:44;;;;;;;;;7.75;6.00;;;;;22.52;71.75;100767.06;5028624;28;45373;-85
2021/09/15 07:15:11;;;;;;;;;10.25;9.50;;;;;22.60;71.81;100773.16;5041420;28;45451;-86
2021/09/15 07:17:37;;;;;;;;;12.50;7.25;;;;;22.59;71.67;100781.09;5040415;28;45452;-85
2021/09/15 07:20:04;;;;;;;;;8.00;8.00;;;;;22.60;71.74;100777.56;5039587;28;45476;-88
2021/09/15 07:22:29;;;;;;;;;9.50;7.75;;;;;22.56;71.97;100774.09;5040551;28;45343;-90
2021/09/15 07:24:55;;;;;;;;;8.00;8.00;;;;;22.53;72.10;100782.00;5048374;28;45342;-86
2021/09/15 07:27:21;;;;;;;;;7.75;6.00;;;;;22.51;72.00;100787.31;5019692;28;45250;-87
2021/09/15 07:29:46;;;;;;;;;9.00;8.25;;;;;22.49;72.47;100786.44;5021039;28;45271;-89
2021/09/15 07:32:13;;;;;;;;;8.50;7.75;;;;;22.50;72.24;100800.47;5021491;28;45370;-88
2021/09/15 07:34:44;;;;;;;;;11.00;9.25;;;;;22.50;72.22;100797.84;5020870;28;45395;-86
2021/09/15 07:37:11;;;;;;;;;10.00;8.00;;;;;22.51;72.24;100799.59;5020922;28;45349;-88
2021/09/15 07:39:37;;;;;;;;;9.50;7.75;;;;;22.50;72.32;100793.47;5052366;28;47239;-86
2021/09/15 07:42:03;;;;;;;;;10.25;8.25;;;;;22.48;72.63;100789.94;5039447;28;45259;-91
2021/09/15 07:44:28;;;;;;;;;9.00;8.50;;;;;22.50;72.06;100793.47;5037209;28;45482;-91
2021/09/15 07:46:54;;;;;;;;;9.00;7.75;;;;;22.54;72.41;100789.03;5039099;28;45515;-88
2021/09/15 07:49:20;;;;;;;;;9.75;8.50;;;;;22.53;72.08;100789.91;5040338;28;45716;-90
2021/09/15 07:51:46;;;;;;;;;12.50;9.00;;;;;22.53;72.05;100782.00;5041340;28;45377;-90
2021/09/15 07:54:12;;;;;;;;;12.25;7.75;;;;;22.55;72.31;100791.66;5039249;28;45334;-90
2021/09/15 07:56:37;;;;;;;;;9.75;8.75;;;;;22.65;72.65;100795.13;5041047;28;45484;-89
2021/09/15 07:59:04;;;;;;;;;8.75;7.75;;;;;22.75;72.64;100787.16;5041445;28;45861;-91
2021/09/15 08:01:50;;;;;;;;;8.50;8.50;;;;;22.81;71.85;100798.56;5040594;28;45393;-91
2021/09/15 08:04:16;;;;;;;;;8.00;7.75;;;;;22.82;71.82;100788.88;5039235;28;45365;-92
2021/09/15 08:06:41;;;;;;;;;8.75;8.75;;;;;22.88;72.07;100795.00;5040228;28;45393;-91
2021/09/15 08:09:07;;;;;;;;;8.50;8.00;;;;;22.96;71.62;100799.31;5055694;28;47529;-92
2021/09/15 08:11:33;;;;;;;;;13.25;10.00;;;;;22.95;71.55;100800.22;5043567;28;45319;-89
2021/09/15 08:13:59;;;;;;;;;13.00;11.75;;;;;22.93;72.12;100800.22;5064336;28;45216;-88
2021/09/15 08:16:25;;;;;;;;;11.00;9.00;;;;;22.92;71.78;100797.63;5050698;28;45428;-92
2021/09/15 08:18:51;;;;;;;;;9.75;8.00;;;;;22.89;72.21;100801.16;5046486;28;45718;-89
2021/09/15 08:21:17;;;;;;;;;10.75;9.50;;;;;22.84;72.20;100800.31;5042236;28;45431;-92
2021/09/15 08:23:42;;;;;;;;;10.25;10.25;;;;;22.84;71.69;100805.56;5056909;28;45325;-90
2021/09/15 08:26:08;;;;;;;;;10.50;10.50;;;;;22.73;72.01;100806.53;5055377;28;45867;-91
2021/09/15 08:28:36;;;;;;;;;12.75;10.50;;;;;22.73;71.91;100813.56;5041341;28;45520;-90
2021/09/15 08:31:03;;;;;;;;;12.75;12.75;;;;;22.69;72.19;100817.97;5042423;28;45330;-92
2021/09/15 08:33:29;;;;;;;;;13.00;11.75;;;;;22.65;72.08;100816.25;5052220;28;45361;-90
2021/09/15 08:35:55;;;;;;;;;8.25;7.50;;;;;22.58;72.71;100811.88;5055541;28;45208;-90
2021/09/15 08:38:20;;;;;;;;;12.00;11.50;;;;;22.57;72.56;100813.66;5045412;28;45283;-89
2021/09/15 08:40:46;;;;;;;;;16.25;12.25;;;;;22.57;72.62;100818.03;5044183;28;45512;-90
2021/09/15 08:43:12;;;;;;;;;13.50;12.50;;;;;22.61;73.15;100827.69;5042862;28;45370;-90
2021/09/15 08:45:37;;;;;;;;;15.00;14.25;;;;;22.60;72.79;100823.28;5038963;28;45385;-89
2021/09/15 08:48:04;;;;;;;;;14.75;10.25;;;;;22.59;72.90;100816.25;5038948;28;46314;-88
2021/09/15 08:50:30;;;;;;;;;13.00;12.25;;;;;22.64;72.92;100821.50;5039069;28;45504;-87
2021/09/15 08:52:56;;;;;;;;;22.50;15.25;;;;;22.63;72.78;100818.00;5041109;28;45280;-90
2021/09/15 08:55:22;;;;;;;;;18.25;13.50;;;;;22.62;73.16;100825.94;5042898;28;45643;-89
2021/09/15 08:57:48;;;;;;;;;14.00;13.75;;;;;22.61;72.97;100825.06;5041012;28;45506;-83
2021/09/15 09:00:14;;;;;;;;;14.50;11.75;;;;;22.60;73.61;100822.44;5037642;28;45344;-82
2021/09/15 09:02:44;;;;;;;;;12.00;10.25;;;;;22.64;73.03;100835.59;5037072;28;45377;-82
2021/09/15 09:05:11;;;;;;;;;14.75;12.25;;;;;22.69;72.94;100830.31;5039050;28;45358;-95
2021/09/15 09:07:36;;;;;;;;;16.75;11.75;;;;;22.73;73.02;100832.91;5036797;28;48081;-85
2021/09/15 09:10:08;;;;;;;;;14.25;12.50;;;;;22.81;72.76;100835.53;5036850;28;45342;-85
2021/09/15 09:12:36;;;;;;;;;13.00;12.00;;;;;22.87;72.51;100835.47;5052323;28;45412;-87
2021/09/15 09:15:25;;;;;;;;;12.00;10.25;;;;;22.88;72.19;100817.88;5035978;28;45451;-88
2021/09/15 09:17:57;;;;;;;;;12.75;12.50;;;;;22.97;72.29;100830.13;5037641;28;46455;-82
2021/09/15 09:20:33;;;;;;;;;14.00;12.75;;;;;23.02;72.38;100831.00;5052373;28;45779;-83
2021/09/15 09:23:18;;;;;;;;;14.75;14.25;;;;;23.08;72.08;100838.00;5039199;28;45526;-88
2021/09/15 09:25:47;;;;;;;;;12.25;10.00;;;;;23.09;72.06;100834.47;5056040;28;45362;-87
2021/09/15 09:28:18;;;;;;;;;14.50;11.75;;;;;23.03;71.89;100832.75;5035953;28;47149;-87
2021/09/15 09:30:44;;;;;;;;;15.50;14.50;;;;;23.06;71.98;100842.41;5036132;28;45758;-85
2021/09/15 09:33:17;;;;;;;;;16.75;13.50;;;;;23.00;71.58;100833.63;5037667;28;45557;-86
2021/09/15 09:35:51;;;;;;;;;16.25;14.00;;;;;23.00;71.52;100840.69;5036704;28;45568;-87
2021/09/15 09:38:20;;;;;;;;;18.50;17.00;;;;;22.99;72.10;100839.81;5053132;28;48015;-86
2021/09/15 09:40:58;;;;;;;;;17.25;13.75;;;;;23.00;72.21;100849.47;5036556;28;45429;-83
2021/09/15 09:43:24;;;;;;;;;21.75;18.50;;;;;22.96;72.23;100850.38;5036689;28;45313;-86
2021/09/15 09:45:50;;;;;;;;;17.50;14.50;;;;;22.90;72.69;100849.53;5036230;28;45472;-86
2021/09/15 09:48:38;;;;;;;;;19.50;17.00;;;;;22.87;72.50;100853.94;5036272;28;45278;-86
2021/09/15 09:51:23;;;;;;;;;18.00;15.50;;;;;22.74;72.35;100846.97;5035593;28;45335;-86
2021/09/15 09:53:50;;;;;;;;;22.50;18.25;;;;;22.73;71.92;100856.66;5051404;28;45368;-86
2021/09/15 09:56:16;;;;;;;;;14.25;13.00;;;;;22.68;72.77;100850.53;5035146;28;45658;-86
2021/09/15 09:58:46;;;;;;;;;19.50;10.00;;;;;22.67;73.16;100851.44;5037968;28;45470;-87
2021/09/15 10:01:19;;;;;;;;;9.75;9.25;;;;;22.65;73.22;100845.28;5059945;28;45752;-91
2021/09/15 10:03:45;;;;;;;;;9.75;9.00;;;;;22.69;72.85;100843.50;5070923;28;44802;-85
2021/09/15 10:06:11;;;;;;;;;15.25;11.00;;;;;22.78;72.77;100842.59;5044130;28;45311;-89
2021/09/15 10:08:37;;;;;;;;;7.25;7.25;;;;;22.87;71.73;100845.16;5037585;28;46487;-85
2021/09/15 10:11:03;;;;;;;;;6.00;6.00;;;;;22.94;71.66;100849.50;5037588;28;45644;-85
2021/09/15 10:13:29;;;;;;;;;3.75;3.75;;;;;23.00;72.33;100849.47;5036627;28;45504;-84
2021/09/15 10:16:03;;;;;;;;;6.50;6.50;;;;;23.04;71.65;100843.28;5046325;28;45243;-88
2021/09/15 10:18:29;;;;;;;;;9.25;9.00;;;;;23.03;72.08;100854.72;5044355;28;46337;-84
2021/09/15 10:20:57;;;;;;;;;13.25;12.00;;;;;23.00;72.61;100849.47;5037617;28;45314;-85
2021/09/15 10:23:48;;;;;;;;;7.00;7.00;;;;;23.05;72.42;100849.47;5031135;28;45493;-86
2021/09/15 10:26:40;;;;;;;;;12.75;11.00;;;;;23.10;72.56;100852.94;5032046;28;45399;-88
2021/09/15 10:29:31;;;;;;;;;18.50;13.50;;;;;23.15;72.27;100853.81;5053220;28;46850;-89
2021/09/15 10:32:05;;;;;;;;;22.25;20.25;;;;;23.17;71.99;100849.34;5034960;28;45456;-81
2021/09/15 10:34:40;;;;;;;;;21.25;20.25;;;;;23.22;72.33;100843.22;5035396;28;45536;-82
2021/09/15 10:37:11;;;;;;;;;15.75;15.75;;;;;23.27;72.14;100842.28;5022894;28;45426;-81
2021/09/15 10:40:13;;;;;;;;;16.00;14.00;;;;;23.37;72.17;100839.56;5033609;28;46606;-83
2021/09/15 10:45:10;;;;;;;;;11.75;11.25;;;;;23.63;70.96;100840.25;5032034;28;45461;-85
2021/09/15 10:47:38;;;;;;;;;10.00;9.25;;;;;23.78;70.99;100847.16;5037575;28;45578;-85
2021/09/15 10:50:04;;;;;;;;;11.00;11.00;;;;;23.88;70.12;100844.41;5037331;28;46187;-83
2021/09/15 10:52:36;;;;;;;;;10.25;9.25;;;;;23.98;70.20;100840.81;5035235;28;45341;-83
2021/09/15 10:55:01;;;;;;;;;13.25;11.25;;;;;24.02;69.92;100839.91;5018375;28;45466;-82
2021/09/15 10:57:27;;;;;;;;;12.00;9.00;;;;;24.03;70.06;100856.63;5018357;28;45367;-91
2021/09/15 11:00:21;;;;;;;;;11.50;9.00;;;;;24.02;68.96;100857.53;5027175;28;46384;-89
2021/09/15 11:02:49;;;;;;;;;5.00;5.00;;;;;24.04;68.94;100853.97;5034277;28;45762;-89
2021/09/15 11:05:35;;;;;;;;;9.50;8.00;;;;;24.06;68.18;100853.97;5044404;28;45600;-89
2021/09/15 11:08:01;;;;;;;;;9.25;8.25;;;;;24.03;68.93;100848.69;5047251;28;45442;-89
2021/09/15 11:10:32;;;;;;;;;12.25;10.25;;;;;24.02;69.03;100845.19;5050530;28;47797;-90
2021/09/15 11:13:09;;;;;;;;;10.00;9.00;;;;;24.01;68.22;100846.09;5051850;28;45736;-91
2021/09/15 11:15:45;;;;;;;;;11.75;10.25;;;;;24.09;68.87;100848.63;5022675;28;45391;-91
2021/09/15 11:18:26;;;;;;;;;7.75;7.00;;;;;24.23;67.95;100853.78;5021329;28;45205;-90
2021/09/15 11:20:54;;;;;;;;;8.75;8.75;;;;;24.34;69.01;100848.34;5019720;28;46994;-91
2021/09/15 11:23:24;;;;;;;;;10.00;9.75;;;;;24.34;68.28;100838.66;5022510;28;45701;-90
2021/09/15 11:25:50;;;;;;;;;11.00;10.00;;;;;24.39;68.08;100851.84;5036480;28;45292;-92
2021/09/15 11:28:21;;;;;;;;;9.75;9.50;;;;;24.42;67.73;100846.47;5022609;28;45426;-91
2021/09/15 11:30:49;;;;;;;;;13.75;11.25;;;;;24.52;67.82;100855.19;5044249;28;48124;-91
2021/09/15 11:33:15;;;;;;;;;11.75;11.00;;;;;24.53;67.52;100841.06;5048355;28;45647;-90
2021/09/15 11:36:30;;;;;;;;;13.50;11.50;;;;;24.58;66.64;100855.09;5042434;28;45544;-90